Airfield :
LOGIN :

Register | Disclaimer

   EN    FR    IT 

 










Legend :    VFR   Marginal VFR   IFR   Intensive IFR   Very Intensive IFR
Visi :
Ceiling :
>= 8 km
>= 3000ft
5 to 8 km
1000 to 3000 ft
1500m to 5 km
500 to 1000 ft
800 to 1500m
200 to 500 ft
< 800m
< 200 ft
Symbols :   Thunderstorms  Fog  Heavy snow  Heavy precipitations  Wind > 20 kt
SIGMETs :     Misc.  Thunderstorms  Icing  Turbulence  Mountain Waves  Volcanic Ashes







- Airport Elevation : 458 ft
- Download approach charts


LFSI - St-Dizier

CURRENT METAR :
  • 230900Z AUTO 20013G25KT 9999 FEW042 SCT092 15/06 Q1007

EXPIRED METARs :
  • 230830Z AUTO 20012KT 170V230 9999 SCT043 SCT058 14/06 Q1007
  • 230800Z AUTO 19012G23KT CAVOK 14/06 Q1007
  • 230730Z AUTO 18013KT 150V210 CAVOK 13/06 Q1006
  • 230700Z AUTO 19014G25KT 150V220 CAVOK 13/06 Q1006
  • 230630Z AUTO 18013KT CAVOK 13/06 Q1005

TAF TAF LFSI
Valid from the 23 at 09:00 until the 24 at 09:00 UTC


230800Z 2309/2409 20015G25KT CAVOK
BECMG 2316/2318 20012KT
BECMG 2405/2407 20015G25KT 4000 -RA
No reported NOTAMs for that airfield.
2 SIGMETs reported for the Paris FIR (LFFF) :
 
Severe turbulence
LFFF SIGMET 3 VALID 230700/231000 LFPW
LFFF PARIS FIR/UIR SEV TURB FCST WI N4930 W00015 - N5000 W00015 - N5115 E00200 - N5045 E00315 SFC/FL060 STNR WKN=
Severe turbulence
LFFF SIGMET 2 VALID 230500/230900 LFPW
LFFF PARIS FIR/UIR SEV TURB OBS SE OF LINE N4700 E00430 - N4630 E00400 SFC/FL080 STNR NC=



MET'MAP, your aeronautical weather chart ! - Copyright ORBIFLY December 2007 - Disclaimer

ORBIFLY MET'MAP TEAM :

Programming & Development : Alexandra Zaïnal
Concept & Development : Baudouin d'Aumeries
Co-Development & Prog : Marc-Olivier Méhu
Technical & hardware support : Manuel Goepfert

Contact : metmap@orbifly.com




SOURCES & CREDITS :

   NOAA